createdAt,value
2023-03-20T00:02:19.634Z,19.30
2023-03-20T00:04:46.551Z,19.30
2023-03-20T00:07:13.379Z,19.50
2023-03-20T00:09:40.205Z,19.70
2023-03-20T00:12:07.250Z,19.90
2023-03-20T00:14:34.834Z,19.90
2023-03-20T00:17:02.052Z,20.00
2023-03-20T00:19:30.924Z,20.10
2023-03-20T00:21:58.359Z,20.00
2023-03-20T00:24:26.816Z,20.30
2023-03-20T00:26:54.109Z,20.60
2023-03-20T00:29:26.867Z,21.10
2023-03-20T00:31:54.959Z,21.20
2023-03-20T00:34:23.877Z,21.20
2023-03-20T00:36:52.074Z,21.40
2023-03-20T00:39:19.421Z,21.50
2023-03-20T00:42:00.676Z,21.70
2023-03-20T00:44:42.602Z,21.50
2023-03-20T00:47:15.330Z,21.30
2023-03-20T00:49:43.048Z,21.40
2023-03-20T00:52:12.583Z,22.10
2023-03-20T00:54:39.319Z,22.40
2023-03-20T00:57:29.308Z,22.70
2023-03-20T01:00:41.656Z,22.50
2023-03-20T01:03:18.883Z,22.20
2023-03-20T01:05:46.707Z,22.30
2023-03-20T01:08:16.465Z,22.40
2023-03-20T01:10:48.852Z,22.40
2023-03-20T01:13:30.299Z,22.60
2023-03-20T01:15:58.644Z,22.40
2023-03-20T01:18:27.022Z,22.60
2023-03-20T01:20:53.880Z,22.60
2023-03-20T01:23:22.914Z,22.60
2023-03-20T01:25:50.712Z,22.70
2023-03-20T01:28:23.178Z,22.90
2023-03-20T01:30:50.761Z,22.90
2023-03-20T01:33:20.518Z,23.00
2023-03-20T01:35:48.642Z,23.00
2023-03-20T01:38:25.807Z,22.90
2023-03-20T01:41:00.883Z,22.90
2023-03-20T01:43:28.738Z,22.80
2023-03-20T01:46:06.294Z,23.40
2023-03-20T01:48:53.519Z,23.50
2023-03-20T01:51:22.731Z,23.40
2023-03-20T01:53:58.587Z,24.00
2023-03-20T01:56:27.077Z,23.80
2023-03-20T01:59:03.319Z,24.20
2023-03-20T02:01:30.625Z,24.30
2023-03-20T02:03:57.466Z,24.50
2023-03-20T02:06:26.712Z,24.80
2023-03-20T02:08:53.825Z,24.80
2023-03-20T02:11:23.987Z,24.70
2023-03-20T02:13:57.301Z,24.60
2023-03-20T02:16:24.138Z,24.60
2023-03-20T02:18:52.857Z,24.60
2023-03-20T02:21:38.544Z,24.50
2023-03-20T02:24:17.266Z,24.10
2023-03-20T02:27:14.287Z,24.10
2023-03-20T02:29:48.114Z,24.20
2023-03-20T02:32:50.698Z,24.50
2023-03-20T02:35:47.607Z,24.50
2023-03-20T02:38:24.806Z,24.40
2023-03-20T02:41:15.594Z,24.50
2023-03-20T02:43:53.449Z,25.70
2023-03-20T02:46:35.464Z,25.10
2023-03-20T02:49:27.083Z,25.30
2023-03-20T02:51:57.118Z,26.90
2023-03-20T02:54:36.063Z,27.20
2023-03-20T02:57:08.526Z,27.30
2023-03-20T03:00:05.695Z,28.80
2023-03-20T03:02:37.767Z,30.10
2023-03-20T03:05:16.913Z,29.70
2023-03-20T03:07:47.075Z,30.00
2023-03-20T03:10:21.557Z,29.70
2023-03-20T03:12:51.574Z,28.80
2023-03-20T03:15:38.886Z,28.10
2023-03-20T03:18:07.662Z,27.50
2023-03-20T03:20:38.421Z,27.00
2023-03-20T03:23:06.750Z,26.70
2023-03-20T03:25:37.959Z,26.40
2023-03-20T03:28:22.930Z,26.30
2023-03-20T03:30:50.679Z,26.00
2023-03-20T03:33:32.827Z,25.80
2023-03-20T03:36:25.428Z,25.60
2023-03-20T03:39:09.682Z,25.40
2023-03-20T03:42:15.777Z,25.30
2023-03-20T03:44:56.770Z,25.00
2023-03-20T03:47:38.165Z,25.20
2023-03-20T03:50:32.186Z,25.20
2023-03-20T03:53:03.319Z,24.90
2023-03-20T03:55:37.110Z,25.30
2023-03-20T03:58:36.301Z,25.20
2023-03-20T04:01:04.933Z,25.30
2023-03-20T04:03:36.980Z,25.50
2023-03-20T04:06:06.601Z,25.50
2023-03-20T04:08:34.459Z,25.50
2023-03-20T04:11:01.389Z,25.50
2023-03-20T04:13:28.104Z,25.60
2023-03-20T04:15:54.991Z,25.50
2023-03-20T04:18:21.735Z,25.70
2023-03-20T04:20:48.848Z,25.70
2023-03-20T04:23:16.114Z,25.70
2023-03-20T04:25:43.120Z,25.70
2023-03-20T04:28:11.600Z,25.70
2023-03-20T04:30:38.521Z,25.70
2023-03-20T04:33:05.497Z,25.60
2023-03-20T04:35:32.269Z,25.80
2023-03-20T04:37:59.036Z,25.90
2023-03-20T04:40:26.794Z,26.10
2023-03-20T04:42:53.599Z,26.10
2023-03-20T04:45:20.720Z,26.20
2023-03-20T04:47:47.455Z,26.30
2023-03-20T04:50:14.357Z,26.40
2023-03-20T04:52:41.322Z,26.60
2023-03-20T04:55:08.203Z,26.60
2023-03-20T04:57:35.192Z,26.90
2023-03-20T05:00:01.995Z,27.10
2023-03-20T05:02:28.840Z,27.20
2023-03-20T05:04:55.894Z,27.20
2023-03-20T05:07:28.649Z,27.20
2023-03-20T05:09:55.467Z,27.20
2023-03-20T05:12:22.912Z,27.10
2023-03-20T05:14:49.675Z,27.10
2023-03-20T05:17:18.284Z,26.90
2023-03-20T05:19:44.980Z,26.90
2023-03-20T05:22:11.733Z,26.90
2023-03-20T05:24:38.521Z,27.00
2023-03-20T05:27:05.472Z,26.90
2023-03-20T05:29:32.176Z,27.00
2023-03-20T05:31:58.946Z,27.10
2023-03-20T05:34:25.990Z,27.20
2023-03-20T05:36:52.846Z,27.10
2023-03-20T05:39:19.773Z,27.00
2023-03-20T05:41:46.654Z,27.00
2023-03-20T05:44:13.803Z,27.20
2023-03-20T05:46:40.511Z,27.20
2023-03-20T05:49:07.297Z,27.20
2023-03-20T05:51:34.170Z,27.50
2023-03-20T05:54:01.290Z,27.50
2023-03-20T05:56:28.147Z,27.50
2023-03-20T05:58:54.993Z,27.40
2023-03-20T06:01:21.991Z,27.50
2023-03-20T06:03:49.196Z,27.50
2023-03-20T06:06:17.362Z,27.30
2023-03-20T06:08:44.327Z,27.20
2023-03-20T06:11:11.795Z,27.30
2023-03-20T06:13:38.570Z,27.30
2023-03-20T06:16:06.243Z,27.40
2023-03-20T06:18:33.080Z,27.50
2023-03-20T06:20:59.995Z,27.60
2023-03-20T06:23:26.715Z,27.50
2023-03-20T06:25:53.642Z,27.40
2023-03-20T06:28:20.684Z,27.30
2023-03-20T06:30:47.598Z,27.50
2023-03-20T06:33:14.548Z,27.60
2023-03-20T06:35:41.558Z,27.70
2023-03-20T06:38:08.430Z,28.80
2023-03-20T06:40:36.184Z,27.90
2023-03-20T06:43:02.988Z,28.00
2023-03-20T06:45:31.839Z,28.10
2023-03-20T06:47:58.856Z,29.10
2023-03-20T06:50:25.724Z,28.20
2023-03-20T06:52:52.634Z,28.20
2023-03-20T06:55:19.360Z,28.10
2023-03-20T06:57:46.170Z,28.20
2023-03-20T07:00:14.329Z,28.20
2023-03-20T07:02:41.130Z,28.20
2023-03-20T07:05:08.339Z,28.10
2023-03-20T07:07:35.098Z,28.20
2023-03-20T07:10:02.647Z,28.30
2023-03-20T07:12:29.586Z,28.40
2023-03-20T07:14:56.376Z,28.40
2023-03-20T07:17:23.522Z,28.40
2023-03-20T07:19:50.311Z,28.30
2023-03-20T07:22:23.518Z,28.00
2023-03-20T07:24:50.725Z,27.80
2023-03-20T07:27:18.019Z,27.60
2023-03-20T07:29:45.568Z,27.90
2023-03-20T07:32:12.782Z,27.80
2023-03-20T07:34:39.541Z,27.80
2023-03-20T07:37:06.424Z,27.80
2023-03-20T07:39:33.239Z,27.60
2023-03-20T07:42:00.225Z,27.60
2023-03-20T07:44:27.099Z,27.60
2023-03-20T07:46:53.884Z,27.70
2023-03-20T07:49:21.193Z,27.60
2023-03-20T07:51:49.378Z,27.40
2023-03-20T07:54:17.031Z,27.40
2023-03-20T07:56:43.845Z,27.40
2023-03-20T07:59:10.788Z,27.50
2023-03-20T08:01:37.770Z,27.30
2023-03-20T08:04:04.957Z,27.00
2023-03-20T08:06:31.910Z,26.70
2023-03-20T08:08:58.986Z,26.60
2023-03-20T08:11:26.158Z,26.50
2023-03-20T08:13:52.936Z,26.20
2023-03-20T08:16:19.727Z,26.00
2023-03-20T08:18:46.488Z,25.50
2023-03-20T08:21:13.235Z,25.10
2023-03-20T08:23:40.074Z,24.50
2023-03-20T08:26:07.139Z,24.20
2023-03-20T08:28:46.644Z,24.00
2023-03-20T08:31:15.387Z,23.70
2023-03-20T08:33:42.210Z,23.10
2023-03-20T08:36:09.274Z,23.10
2023-03-20T08:38:36.186Z,22.80
2023-03-20T08:41:03.308Z,22.50
2023-03-20T08:43:30.724Z,22.00
2023-03-20T08:45:57.664Z,21.50
2023-03-20T08:48:25.618Z,20.90
2023-03-20T08:50:52.454Z,20.70
2023-03-20T08:53:22.043Z,20.80
2023-03-20T08:55:50.200Z,20.80
2023-03-20T08:58:17.902Z,20.80
2023-03-20T09:00:44.743Z,20.90
2023-03-20T09:03:17.080Z,20.80
2023-03-20T09:05:45.018Z,20.30
2023-03-20T09:08:12.130Z,19.60
2023-03-20T09:10:40.644Z,18.70
2023-03-20T09:13:25.859Z,18.00
2023-03-20T09:15:55.097Z,17.30
2023-03-20T09:18:22.967Z,16.30
2023-03-20T09:20:50.868Z,15.50
2023-03-20T09:23:18.551Z,14.30
2023-03-20T09:25:46.546Z,13.30
2023-03-20T09:28:13.554Z,12.00
2023-03-20T09:30:41.400Z,10.70
2023-03-20T09:33:08.223Z,11.10
2023-03-20T09:35:35.175Z,9.30
2023-03-20T09:38:01.872Z,8.40
2023-03-20T09:40:32.735Z,7.80
2023-03-20T09:43:45.691Z,6.90
2023-03-20T09:46:50.129Z,6.90
2023-03-20T09:49:40.660Z,6.50
2023-03-20T09:52:35.200Z,5.40
2023-03-20T09:55:17.501Z,2.70
2023-03-20T09:57:52.460Z,2.50
2023-03-20T10:00:22.332Z,4.80
2023-03-20T10:03:08.175Z,5.40
2023-03-20T10:06:05.961Z,4.00
2023-03-20T10:08:38.552Z,3.10
2023-03-20T10:11:15.985Z,2.70
2023-03-20T10:14:09.187Z,3.10
2023-03-20T10:16:49.157Z,2.50
2023-03-20T10:19:53.565Z,2.90
2023-03-20T10:22:32.948Z,1.00
2023-03-20T10:25:17.919Z,1.00
2023-03-20T10:27:50.870Z,1.00
2023-03-20T10:30:52.298Z,1.40
2023-03-20T10:33:42.408Z,1.80
2023-03-20T10:36:12.033Z,1.00
2023-03-20T10:38:56.220Z,1.60
2023-03-20T10:41:31.620Z,1.70
2023-03-20T10:44:00.634Z,1.00
2023-03-20T10:46:31.717Z,1.00
2023-03-20T10:49:21.142Z,1.00
2023-03-20T10:51:59.933Z,1.10
2023-03-20T10:54:40.579Z,1.00
2023-03-20T10:57:14.601Z,1.20
2023-03-20T10:59:48.953Z,2.10
2023-03-20T11:02:18.740Z,2.40
2023-03-20T11:04:46.173Z,1.90
2023-03-20T11:07:24.890Z,2.40
2023-03-20T11:10:10.532Z,1.30
2023-03-20T11:12:40.734Z,1.10
2023-03-20T11:15:16.685Z,1.00
2023-03-20T11:17:43.558Z,1.10
2023-03-20T11:20:14.063Z,2.00
2023-03-20T11:22:41.680Z,1.40
2023-03-20T11:25:37.633Z,2.40
2023-03-20T11:28:36.966Z,1.00
2023-03-20T11:31:06.659Z,1.00
2023-03-20T11:33:39.059Z,1.90
2023-03-20T11:36:21.625Z,2.30
2023-03-20T11:38:51.155Z,2.00
2023-03-20T11:41:28.628Z,1.40
2023-03-20T11:43:55.856Z,1.20
2023-03-20T11:46:24.658Z,1.50
2023-03-20T11:49:20.853Z,1.60
2023-03-20T11:51:47.954Z,1.00
2023-03-20T11:54:20.565Z,1.00
2023-03-20T11:56:56.776Z,1.00
2023-03-20T11:59:32.180Z,1.00
2023-03-20T12:02:00.348Z,1.00
2023-03-20T12:04:30.664Z,1.00
2023-03-20T12:07:03.678Z,1.00
2023-03-20T12:09:41.467Z,1.00
2023-03-20T12:12:16.135Z,1.00
2023-03-20T12:14:46.026Z,1.00
2023-03-20T12:17:27.552Z,1.00
2023-03-20T12:20:01.680Z,1.00
2023-03-20T12:22:47.686Z,1.00
2023-03-20T12:25:43.168Z,1.00
2023-03-20T12:28:22.496Z,1.00
2023-03-20T12:30:49.229Z,1.00
2023-03-20T12:33:18.939Z,1.00
2023-03-20T12:35:49.929Z,1.00
2023-03-20T12:38:34.385Z,1.00
2023-03-20T12:41:20.805Z,1.00
2023-03-20T12:43:47.888Z,1.00
2023-03-20T12:46:33.222Z,1.00
2023-03-20T12:49:12.176Z,1.00
2023-03-20T12:52:00.440Z,1.00
2023-03-20T12:54:53.554Z,1.00
2023-03-20T12:57:29.625Z,1.00
2023-03-20T13:00:16.750Z,1.00
2023-03-20T13:03:09.552Z,1.00
2023-03-20T13:05:51.198Z,1.00
2023-03-20T13:08:42.191Z,1.00
2023-03-20T13:11:14.086Z,1.00
2023-03-20T13:13:54.996Z,1.00
2023-03-20T13:16:37.016Z,1.00
2023-03-20T13:19:11.889Z,1.00
2023-03-20T13:22:01.693Z,1.00
2023-03-20T13:24:50.025Z,1.00
2023-03-20T13:27:19.864Z,1.00
2023-03-20T13:30:02.194Z,1.00
2023-03-20T13:32:50.801Z,1.00
2023-03-20T13:35:26.854Z,1.00
2023-03-20T13:37:57.924Z,1.00
2023-03-20T13:40:32.150Z,1.00
2023-03-20T13:43:17.515Z,1.00
2023-03-20T13:45:44.610Z,1.00
2023-03-20T13:48:23.431Z,1.00
2023-03-20T13:51:29.577Z,1.00
2023-03-20T13:54:15.106Z,1.00
2023-03-20T13:57:04.764Z,1.00
2023-03-20T13:59:51.858Z,1.00
2023-03-20T14:02:49.412Z,1.00
2023-03-20T14:05:23.647Z,1.00
2023-03-20T14:07:56.495Z,1.00
2023-03-20T14:10:23.485Z,1.00
2023-03-20T14:13:07.326Z,1.00
2023-03-20T14:15:37.907Z,1.00
2023-03-20T14:18:06.868Z,1.00
2023-03-20T14:20:41.462Z,1.00
2023-03-20T14:23:17.697Z,1.00
2023-03-20T14:25:45.756Z,1.00
2023-03-20T14:28:12.818Z,1.00
2023-03-20T14:30:43.697Z,1.00
2023-03-20T14:33:17.666Z,1.00
2023-03-20T14:35:50.762Z,1.00
2023-03-20T14:38:20.693Z,1.00
2023-03-20T14:41:04.757Z,1.00
2023-03-20T14:43:58.848Z,1.00
2023-03-20T14:46:43.518Z,1.00
2023-03-20T14:49:48.124Z,1.00
2023-03-20T14:52:23.786Z,1.00
2023-03-20T14:54:54.862Z,1.00
2023-03-20T14:57:48.691Z,1.00
2023-03-20T15:00:22.956Z,1.00
2023-03-20T15:02:53.415Z,1.00
2023-03-20T15:05:29.978Z,1.00
2023-03-20T15:08:23.080Z,1.00
2023-03-20T15:11:04.168Z,1.00
2023-03-20T15:13:31.581Z,1.00
2023-03-20T15:16:05.288Z,1.00
2023-03-20T15:18:39.240Z,1.00
2023-03-20T15:21:16.157Z,1.00
2023-03-20T15:23:44.969Z,1.00
2023-03-20T15:26:15.398Z,1.00
2023-03-20T15:28:44.768Z,1.00
2023-03-20T15:31:38.741Z,1.00
2023-03-20T15:34:14.856Z,1.00
2023-03-20T15:36:43.000Z,1.00
2023-03-20T15:39:18.327Z,1.00
2023-03-20T15:42:04.788Z,1.00
2023-03-20T15:44:37.545Z,1.00
2023-03-20T15:47:11.181Z,1.00
2023-03-20T15:49:43.331Z,1.00
2023-03-20T15:52:41.245Z,1.00
2023-03-20T15:55:16.328Z,1.00
2023-03-20T15:57:48.129Z,1.00
2023-03-20T16:00:26.068Z,1.00
2023-03-20T16:02:57.195Z,1.00
2023-03-20T16:05:27.634Z,1.00
2023-03-20T16:07:54.897Z,1.00
2023-03-20T16:10:37.992Z,1.00
2023-03-20T16:13:07.344Z,1.00
2023-03-20T16:15:34.647Z,1.00
2023-03-20T16:18:04.811Z,1.00
2023-03-20T16:20:40.811Z,1.00
2023-03-20T16:23:09.618Z,1.00
2023-03-20T16:25:37.385Z,1.00
2023-03-20T16:28:08.367Z,1.00
2023-03-20T16:30:36.038Z,1.00
2023-03-20T16:33:15.549Z,1.00
2023-03-20T16:35:51.024Z,1.00
2023-03-20T16:38:30.552Z,1.00
2023-03-20T16:41:33.767Z,1.00
2023-03-20T16:44:15.861Z,1.00
2023-03-20T16:47:20.271Z,1.00
2023-03-20T16:49:51.797Z,1.00
2023-03-20T16:52:26.456Z,1.00
2023-03-20T16:54:56.059Z,1.00
2023-03-20T16:57:23.345Z,1.00
2023-03-20T16:59:53.860Z,1.00
2023-03-20T17:02:35.881Z,1.00
2023-03-20T17:05:07.116Z,1.00
2023-03-20T17:07:33.939Z,1.00
2023-03-20T17:10:17.680Z,1.00
2023-03-20T17:12:47.364Z,1.00
2023-03-20T17:15:16.535Z,1.00
2023-03-20T17:17:44.053Z,1.00
2023-03-20T17:20:23.442Z,1.00
2023-03-20T17:22:50.410Z,1.00
2023-03-20T17:25:17.717Z,1.00
2023-03-20T17:27:44.926Z,1.00
2023-03-20T17:30:19.674Z,1.00
2023-03-20T17:32:46.744Z,1.00
2023-03-20T17:35:13.604Z,1.00
2023-03-20T17:37:41.598Z,1.00
2023-03-20T17:40:17.531Z,1.00
2023-03-20T17:42:44.357Z,1.00
2023-03-20T17:45:14.020Z,1.00
2023-03-20T17:47:42.519Z,1.80
2023-03-20T17:50:17.844Z,1.10
2023-03-20T17:52:44.552Z,1.00
2023-03-20T17:55:11.413Z,1.10
2023-03-20T17:57:39.785Z,1.00
2023-03-20T18:00:20.118Z,1.10
2023-03-20T18:02:47.318Z,1.20
2023-03-20T18:05:14.423Z,1.10
2023-03-20T18:07:41.489Z,1.10
2023-03-20T18:10:20.544Z,1.00
2023-03-20T18:12:47.527Z,1.00
2023-03-20T18:15:14.479Z,1.00
2023-03-20T18:17:41.419Z,1.00
2023-03-20T18:20:23.484Z,1.00
2023-03-20T18:22:50.378Z,1.00
2023-03-20T18:25:17.614Z,1.20
2023-03-20T18:27:44.500Z,1.30
2023-03-20T18:30:23.630Z,1.30
2023-03-20T18:32:50.884Z,1.10
2023-03-20T18:35:18.300Z,1.60
2023-03-20T18:37:45.162Z,1.80
2023-03-20T18:40:36.510Z,1.90
2023-03-20T18:43:04.283Z,1.60
2023-03-20T18:45:31.983Z,1.90
2023-03-20T18:47:59.036Z,1.80
2023-03-20T18:50:37.485Z,1.80
2023-03-20T18:53:06.026Z,1.80
2023-03-20T18:55:34.103Z,1.90
2023-03-20T18:58:03.916Z,1.70
2023-03-20T19:00:36.063Z,1.60
2023-03-20T19:03:03.419Z,1.50
2023-03-20T19:05:30.981Z,1.50
2023-03-20T19:07:59.743Z,1.30
2023-03-20T19:10:30.708Z,1.60
2023-03-20T19:12:57.951Z,1.60
2023-03-20T19:15:35.757Z,1.60
2023-03-20T19:18:04.273Z,1.70
2023-03-20T19:20:34.367Z,1.90
2023-03-20T19:23:02.634Z,2.10
2023-03-20T19:25:31.369Z,2.20
2023-03-20T19:27:59.348Z,2.50
2023-03-20T19:30:30.977Z,2.30
2023-03-20T19:32:58.092Z,2.40
2023-03-20T19:35:50.344Z,2.40
2023-03-20T19:38:17.623Z,2.70
2023-03-20T19:40:47.505Z,2.70
2023-03-20T19:43:15.572Z,2.90
2023-03-20T19:45:44.392Z,3.00
2023-03-20T19:48:17.071Z,3.00
2023-03-20T19:50:46.775Z,3.10
2023-03-20T19:53:20.191Z,3.20
2023-03-20T19:55:48.401Z,3.20
2023-03-20T19:58:15.162Z,4.60
2023-03-20T20:00:59.964Z,3.90
2023-03-20T20:03:27.586Z,4.10
2023-03-20T20:05:54.955Z,4.50
2023-03-20T20:08:44.282Z,4.70
2023-03-20T20:11:11.887Z,5.00
2023-03-20T20:13:57.272Z,5.00
2023-03-20T20:16:25.968Z,5.00
2023-03-20T20:18:52.728Z,5.10
2023-03-20T20:22:09.707Z,5.20
2023-03-20T20:24:06.571Z,5.40
2023-03-20T20:26:38.872Z,5.40
2023-03-20T20:29:07.909Z,6.50
2023-03-20T20:31:34.748Z,5.80
2023-03-20T20:34:48.870Z,6.10
2023-03-20T20:37:40.676Z,6.10
2023-03-20T20:39:35.410Z,6.30
2023-03-20T20:42:02.631Z,6.50
2023-03-20T20:44:29.525Z,6.60
2023-03-20T20:46:57.099Z,6.90
2023-03-20T20:49:23.880Z,6.90
2023-03-20T20:51:50.794Z,6.90
2023-03-20T20:54:17.675Z,7.20
2023-03-20T20:56:44.526Z,7.30
2023-03-20T20:59:11.551Z,7.40
2023-03-20T21:01:38.363Z,7.50
2023-03-20T21:04:05.080Z,7.60
2023-03-20T21:07:03.390Z,7.60
2023-03-20T21:09:19.376Z,7.80
2023-03-20T21:11:46.712Z,8.00
2023-03-20T21:14:14.656Z,9.10
2023-03-20T21:16:41.610Z,8.10
2023-03-20T21:19:08.439Z,8.40
2023-03-20T21:21:35.719Z,8.20
2023-03-20T21:24:02.740Z,8.50
2023-03-20T21:26:29.487Z,8.80
2023-03-20T21:28:56.431Z,8.80
2023-03-20T21:31:30.891Z,9.30
2023-03-20T21:33:58.348Z,8.80
2023-03-20T21:36:25.876Z,8.90
2023-03-20T21:39:07.220Z,9.30
2023-03-20T21:41:35.858Z,9.30
2023-03-20T21:44:03.866Z,9.40
2023-03-20T22:03:33.888Z,9.90
2023-03-20T22:07:05.655Z,9.90
2023-03-20T22:09:45.732Z,10.10
2023-03-20T22:15:12.761Z,10.20
2023-03-20T22:26:11.271Z,10.40
2023-03-20T22:29:07.064Z,10.40
2023-03-20T22:45:10.634Z,11.10
2023-03-20T22:47:37.922Z,11.20
2023-03-20T22:50:05.571Z,11.30
2023-03-20T22:52:45.902Z,11.40
2023-03-20T22:55:17.027Z,11.50
2023-03-20T22:57:56.062Z,11.60
2023-03-20T23:00:27.507Z,11.40
2023-03-20T23:02:57.478Z,11.50
2023-03-20T23:05:27.241Z,12.00
2023-03-20T23:07:54.153Z,11.60
2023-03-20T23:10:21.120Z,11.60
2023-03-20T23:12:47.922Z,11.90
2023-03-20T23:15:14.675Z,12.10
2023-03-20T23:17:41.474Z,12.20
2023-03-20T23:20:14.433Z,12.40
2023-03-20T23:22:43.573Z,12.30
2023-03-20T23:25:21.094Z,12.10
2023-03-20T23:27:58.980Z,12.00
2023-03-20T23:30:33.958Z,11.90
2023-03-20T23:33:05.731Z,11.90
2023-03-20T23:35:33.371Z,12.10
2023-03-20T23:38:00.270Z,12.00
2023-03-20T23:40:27.043Z,12.20
2023-03-20T23:42:53.941Z,12.60
2023-03-20T23:45:21.507Z,12.80
2023-03-20T23:47:49.441Z,13.10
2023-03-20T23:50:28.591Z,13.20
2023-03-20T23:53:09.582Z,13.40
2023-03-20T23:55:41.802Z,13.30
2023-03-20T23:58:09.043Z,13.20
